EZS75XR EBBR-LSGG
Flight info
| Callsign | EZS75XR |
|---|---|
| Flight time | 1h 3m |
| Altitude | 31000 |
| Route | ROUSY DCT GTQ DCT POGOL DCT LASAT DCT MOROK Z24 AKITO |
| Aircraft | A319/M-SDE3FGHIRWY/LB1 |
Departure
| Time | 2026-05-05 13:57 |
|---|---|
| Airport | Brussels Airport (EBBR) |
Arrival
| Time | 2026-05-05 15:00 |
|---|---|
| Airport | Geneva International Airport (LSGG) |
| Time | Latitude | Longitude | Altitude | Speed | Heading |
|---|---|---|---|---|---|
| 2026-05-05 13:17 | 50.90217 | 4.47885 | 190 ft | 0 kts | 155° |
| 2026-05-05 13:33 | 50.90219 | 4.47884 | 185 ft | 1 kts | 155° |
| 2026-05-05 13:33 | 50.90235 | 4.47872 | 197 ft | 3 kts | 155° |
| 2026-05-05 13:33 | 50.90253 | 4.47858 | 187 ft | 3 kts | 153° |
| 2026-05-05 13:33 | 50.90271 | 4.47844 | 194 ft | 3 kts | 152° |
| 2026-05-05 13:34 | 50.90289 | 4.47828 | 193 ft | 3 kts | 147° |
| 2026-05-05 13:34 | 50.90296 | 4.47820 | 196 ft | 0 kts | 144° |
| 2026-05-05 13:39 | 50.90295 | 4.47821 | 185 ft | 1 kts | 142° |
| 2026-05-05 13:39 | 50.90296 | 4.47833 | 185 ft | 3 kts | 98° |
| 2026-05-05 13:39 | 50.90304 | 4.47883 | 185 ft | 6 kts | 66° |
| 2026-05-05 13:40 | 50.90324 | 4.47948 | 194 ft | 7 kts | 65° |
| 2026-05-05 13:40 | 50.90348 | 4.48023 | 190 ft | 8 kts | 53° |
| 2026-05-05 13:40 | 50.90399 | 4.48033 | 185 ft | 8 kts | 350° |
| 2026-05-05 13:40 | 50.90441 | 4.48083 | 185 ft | 8 kts | 60° |
| 2026-05-05 13:41 | 50.90466 | 4.48169 | 187 ft | 9 kts | 65° |
| 2026-05-05 13:41 | 50.90493 | 4.48263 | 191 ft | 10 kts | 65° |
| 2026-05-05 13:41 | 50.90523 | 4.48367 | 185 ft | 11 kts | 65° |
| 2026-05-05 13:41 | 50.90555 | 4.48480 | 197 ft | 12 kts | 65° |
| 2026-05-05 13:42 | 50.90590 | 4.48600 | 190 ft | 12 kts | 65° |
| 2026-05-05 13:42 | 50.90627 | 4.48728 | 187 ft | 13 kts | 65° |
| 2026-05-05 13:42 | 50.90667 | 4.48864 | 187 ft | 14 kts | 65° |
| 2026-05-05 13:42 | 50.90708 | 4.49005 | 188 ft | 14 kts | 65° |
| 2026-05-05 13:43 | 50.90749 | 4.49149 | 192 ft | 15 kts | 65° |
| 2026-05-05 13:43 | 50.90793 | 4.49300 | 190 ft | 15 kts | 65° |
| 2026-05-05 13:43 | 50.90837 | 4.49454 | 192 ft | 16 kts | 65° |
| 2026-05-05 13:43 | 50.90875 | 4.49584 | 196 ft | 12 kts | 66° |
| 2026-05-05 13:44 | 50.90906 | 4.49707 | 189 ft | 12 kts | 86° |
| 2026-05-05 13:44 | 50.90873 | 4.49832 | 184 ft | 13 kts | 114° |
| 2026-05-05 13:44 | 50.90821 | 4.49907 | 184 ft | 0 kts | 168° |
| 2026-05-05 13:44 | 50.90819 | 4.49906 | 184 ft | 0 kts | 184° |
| 2026-05-05 13:45 | 50.90815 | 4.49896 | 184 ft | 2 kts | 239° |
| 2026-05-05 13:45 | 50.90850 | 4.49804 | 184 ft | 14 kts | 274° |
| 2026-05-05 13:45 | 50.90782 | 4.49726 | 185 ft | 13 kts | 193° |
| 2026-05-05 13:45 | 50.90692 | 4.49689 | 185 ft | 13 kts | 195° |
| 2026-05-05 13:46 | 50.90603 | 4.49652 | 185 ft | 14 kts | 194° |
| 2026-05-05 13:46 | 50.90511 | 4.49615 | 185 ft | 14 kts | 194° |
| 2026-05-05 13:46 | 50.90418 | 4.49578 | 191 ft | 14 kts | 195° |
| 2026-05-05 13:46 | 50.90325 | 4.49538 | 185 ft | 14 kts | 193° |
| 2026-05-05 13:47 | 50.90231 | 4.49501 | 184 ft | 14 kts | 195° |
| 2026-05-05 13:47 | 50.90135 | 4.49462 | 197 ft | 14 kts | 195° |
| 2026-05-05 13:47 | 50.90038 | 4.49422 | 185 ft | 14 kts | 194° |
| 2026-05-05 13:47 | 50.89941 | 4.49383 | 185 ft | 14 kts | 194° |
| 2026-05-05 13:48 | 50.89843 | 4.49342 | 194 ft | 15 kts | 194° |
| 2026-05-05 13:48 | 50.89744 | 4.49303 | 185 ft | 15 kts | 194° |
| 2026-05-05 13:48 | 50.89644 | 4.49259 | 184 ft | 15 kts | 196° |
| 2026-05-05 13:48 | 50.89554 | 4.49182 | 184 ft | 15 kts | 196° |
| 2026-05-05 13:49 | 50.89454 | 4.49142 | 194 ft | 15 kts | 195° |
| 2026-05-05 13:49 | 50.89352 | 4.49101 | 184 ft | 15 kts | 194° |
| 2026-05-05 13:49 | 50.89290 | 4.49076 | 187 ft | 0 kts | 194° |
| 2026-05-05 13:53 | 50.89269 | 4.49068 | 184 ft | 7 kts | 194° |
| 2026-05-05 13:53 | 50.89192 | 4.49037 | 183 ft | 14 kts | 192° |
| 2026-05-05 13:53 | 50.89155 | 4.49126 | 184 ft | 11 kts | 68° |
| 2026-05-05 13:54 | 50.89160 | 4.49147 | 195 ft | 0 kts | 68° |
| 2026-05-05 13:55 | 50.89161 | 4.49149 | 194 ft | 1 kts | 67° |
| 2026-05-05 13:56 | 50.89163 | 4.49158 | 191 ft | 1 kts | 68° |
| 2026-05-05 13:56 | 50.89172 | 4.49198 | 193 ft | 18 kts | 70° |
| 2026-05-05 13:56 | 50.89313 | 4.49802 | 187 ft | 95 kts | 70° |
| 2026-05-05 13:56 | 50.89611 | 4.51103 | 210 ft | 150 kts | 69° |
| 2026-05-05 13:57 | 50.89953 | 4.52645 | 922 ft | 147 kts | 68° |
| 2026-05-05 13:57 | 50.90386 | 4.54127 | 1584 ft | 156 kts | 61° |
| 2026-05-05 13:57 | 50.90936 | 4.55781 | 1917 ft | 185 kts | 60° |
| 2026-05-05 13:57 | 50.91574 | 4.57691 | 2413 ft | 206 kts | 62° |
| 2026-05-05 13:58 | 50.92276 | 4.59813 | 2932 ft | 228 kts | 61° |
| 2026-05-05 13:58 | 50.93045 | 4.62147 | 3508 ft | 248 kts | 61° |
| 2026-05-05 13:58 | 50.93788 | 4.64666 | 4386 ft | 256 kts | 70° |
| 2026-05-05 13:58 | 50.94313 | 4.67392 | 5314 ft | 261 kts | 73° |
| 2026-05-05 13:59 | 50.95334 | 4.72989 | 7116 ft | 270 kts | 80° |
| 2026-05-05 13:59 | 50.95334 | 4.75984 | 7995 ft | 275 kts | 100° |
| 2026-05-05 14:00 | 50.93419 | 4.81233 | 9805 ft | 286 kts | 138° |
| 2026-05-05 14:00 | 50.92389 | 4.82594 | 10232 ft | 297 kts | 139° |
| 2026-05-05 14:00 | 50.90118 | 4.85486 | 10677 ft | 327 kts | 144° |
| 2026-05-05 14:00 | 50.88091 | 4.87219 | 11312 ft | 336 kts | 157° |
| 2026-05-05 14:01 | 50.85854 | 4.88249 | 12068 ft | 342 kts | 168° |
| 2026-05-05 14:01 | 50.83440 | 4.88685 | 12905 ft | 346 kts | 173° |
| 2026-05-05 14:01 | 50.81034 | 4.89061 | 13752 ft | 350 kts | 173° |
| 2026-05-05 14:01 | 50.78633 | 4.89442 | 14467 ft | 352 kts | 173° |
| 2026-05-05 14:02 | 50.76182 | 4.89837 | 15189 ft | 354 kts | 173° |
| 2026-05-05 14:02 | 50.73724 | 4.90233 | 15893 ft | 356 kts | 173° |
| 2026-05-05 14:02 | 50.71245 | 4.90627 | 16589 ft | 359 kts | 174° |
| 2026-05-05 14:02 | 50.68768 | 4.91221 | 17258 ft | 362 kts | 166° |
| 2026-05-05 14:03 | 50.66393 | 4.92573 | 17932 ft | 365 kts | 154° |
| 2026-05-05 14:03 | 50.64231 | 4.94682 | 18531 ft | 369 kts | 142° |
| 2026-05-05 14:03 | 50.62339 | 4.97438 | 19117 ft | 372 kts | 136° |
| 2026-05-05 14:03 | 50.60498 | 5.00326 | 19729 ft | 375 kts | 136° |
| 2026-05-05 14:04 | 50.58638 | 5.03224 | 20327 ft | 378 kts | 136° |
| 2026-05-05 14:04 | 50.56756 | 5.06134 | 20915 ft | 380 kts | 137° |
| 2026-05-05 14:04 | 50.54858 | 5.09054 | 21503 ft | 383 kts | 137° |
| 2026-05-05 14:04 | 50.52946 | 5.11998 | 22093 ft | 386 kts | 137° |
| 2026-05-05 14:05 | 50.51023 | 5.14963 | 22661 ft | 389 kts | 137° |
| 2026-05-05 14:05 | 50.49083 | 5.17948 | 23197 ft | 392 kts | 137° |
| 2026-05-05 14:05 | 50.47129 | 5.20945 | 23679 ft | 395 kts | 137° |
| 2026-05-05 14:05 | 50.45157 | 5.23966 | 24125 ft | 397 kts | 137° |
| 2026-05-05 14:06 | 50.43179 | 5.27000 | 24570 ft | 399 kts | 137° |
| 2026-05-05 14:06 | 50.41860 | 5.29025 | 24858 ft | 400 kts | 137° |
| 2026-05-05 14:06 | 50.39865 | 5.32084 | 25289 ft | 402 kts | 137° |
| 2026-05-05 14:06 | 50.37197 | 5.36164 | 25846 ft | 405 kts | 137° |
| 2026-05-05 14:07 | 50.35170 | 5.39261 | 26266 ft | 408 kts | 137° |
| 2026-05-05 14:07 | 50.33136 | 5.42368 | 26689 ft | 410 kts | 137° |
| 2026-05-05 14:07 | 50.31751 | 5.44479 | 26971 ft | 411 kts | 137° |
| 2026-05-05 14:07 | 50.29698 | 5.47602 | 27381 ft | 413 kts | 138° |
| 2026-05-05 14:08 | 50.27656 | 5.50704 | 27793 ft | 416 kts | 138° |
| 2026-05-05 14:08 | 50.25548 | 5.53901 | 28205 ft | 418 kts | 138° |
| 2026-05-05 14:08 | 50.23458 | 5.57067 | 28624 ft | 420 kts | 138° |
| 2026-05-05 14:08 | 50.21353 | 5.60251 | 29023 ft | 422 kts | 138° |
| 2026-05-05 14:09 | 50.19239 | 5.63446 | 29418 ft | 424 kts | 138° |
| 2026-05-05 14:09 | 50.17142 | 5.66610 | 29790 ft | 426 kts | 138° |
| 2026-05-05 14:09 | 50.15008 | 5.69827 | 30109 ft | 428 kts | 138° |
| 2026-05-05 14:09 | 50.12865 | 5.73055 | 30426 ft | 430 kts | 138° |
| 2026-05-05 14:10 | 50.10710 | 5.76300 | 30733 ft | 431 kts | 138° |
| 2026-05-05 14:10 | 50.08421 | 5.79267 | 30826 ft | 424 kts | 147° |
| 2026-05-05 14:10 | 50.03219 | 5.83077 | 30839 ft | 410 kts | 162° |
| 2026-05-05 14:11 | 49.97813 | 5.85850 | 30837 ft | 409 kts | 162° |
| 2026-05-05 14:11 | 49.92416 | 5.88645 | 30840 ft | 409 kts | 162° |
| 2026-05-05 14:12 | 49.87023 | 5.91426 | 30836 ft | 409 kts | 162° |
| 2026-05-05 14:12 | 49.81643 | 5.94191 | 30836 ft | 408 kts | 162° |
| 2026-05-05 14:13 | 49.76237 | 5.96965 | 30829 ft | 408 kts | 162° |
| 2026-05-05 14:13 | 49.70845 | 5.99719 | 30824 ft | 408 kts | 161° |
| 2026-05-05 14:14 | 49.65457 | 6.02464 | 30823 ft | 408 kts | 161° |
| 2026-05-05 14:14 | 49.60102 | 6.05191 | 30824 ft | 408 kts | 161° |
| 2026-05-05 14:15 | 49.54710 | 6.07931 | 30826 ft | 408 kts | 161° |
| 2026-05-05 14:15 | 49.49333 | 6.10732 | 30816 ft | 408 kts | 157° |
| 2026-05-05 14:16 | 49.44542 | 6.15344 | 30818 ft | 408 kts | 141° |
| 2026-05-05 14:16 | 49.40128 | 6.20845 | 30811 ft | 409 kts | 142° |
| 2026-05-05 14:17 | 49.35687 | 6.26335 | 30813 ft | 409 kts | 142° |
| 2026-05-05 14:17 | 49.31273 | 6.31776 | 30821 ft | 409 kts | 142° |
| 2026-05-05 14:18 | 49.26829 | 6.37242 | 30810 ft | 410 kts | 142° |
| 2026-05-05 14:18 | 49.22383 | 6.42702 | 30811 ft | 410 kts | 142° |
| 2026-05-05 14:19 | 49.17929 | 6.48163 | 30822 ft | 410 kts | 142° |
| 2026-05-05 14:19 | 49.13477 | 6.53605 | 30822 ft | 410 kts | 142° |
| 2026-05-05 14:20 | 49.09011 | 6.59043 | 30820 ft | 410 kts | 142° |
| 2026-05-05 14:20 | 49.04543 | 6.64480 | 30822 ft | 411 kts | 142° |
| 2026-05-05 14:21 | 48.99814 | 6.69276 | 30817 ft | 409 kts | 156° |
| 2026-05-05 14:21 | 48.94306 | 6.71346 | 30824 ft | 411 kts | 175° |
| 2026-05-05 14:22 | 48.88586 | 6.71241 | 30821 ft | 412 kts | 180° |
| 2026-05-05 14:22 | 48.82841 | 6.71012 | 30816 ft | 413 kts | 180° |
| 2026-05-05 14:23 | 48.77097 | 6.70783 | 30831 ft | 414 kts | 180° |
| 2026-05-05 14:23 | 48.71336 | 6.70567 | 30821 ft | 414 kts | 180° |
| 2026-05-05 14:24 | 48.65573 | 6.70344 | 30818 ft | 414 kts | 180° |
| 2026-05-05 14:24 | 48.59800 | 6.70118 | 30815 ft | 415 kts | 180° |
| 2026-05-05 14:25 | 48.54021 | 6.69889 | 30822 ft | 415 kts | 180° |
| 2026-05-05 14:25 | 48.48282 | 6.69664 | 30818 ft | 415 kts | 180° |
| 2026-05-05 14:26 | 48.42510 | 6.69447 | 30822 ft | 415 kts | 180° |
| 2026-05-05 14:26 | 48.36733 | 6.69218 | 30823 ft | 415 kts | 181° |
| 2026-05-05 14:27 | 48.30969 | 6.68993 | 30826 ft | 414 kts | 180° |
| 2026-05-05 14:27 | 48.25209 | 6.68779 | 30828 ft | 414 kts | 181° |
| 2026-05-05 14:28 | 48.19452 | 6.68562 | 30834 ft | 413 kts | 181° |
| 2026-05-05 14:28 | 48.13710 | 6.68344 | 30836 ft | 413 kts | 181° |
| 2026-05-05 14:29 | 48.07972 | 6.68122 | 30835 ft | 412 kts | 181° |
| 2026-05-05 14:29 | 48.02237 | 6.67900 | 30840 ft | 412 kts | 181° |
| 2026-05-05 14:30 | 47.96512 | 6.67681 | 30840 ft | 411 kts | 181° |
| 2026-05-05 14:30 | 47.90819 | 6.67467 | 30845 ft | 411 kts | 181° |
| 2026-05-05 14:31 | 47.85093 | 6.67248 | 30845 ft | 411 kts | 181° |
| 2026-05-05 14:31 | 47.79351 | 6.67043 | 30845 ft | 411 kts | 181° |
| 2026-05-05 14:32 | 47.73625 | 6.66838 | 30848 ft | 412 kts | 181° |
| 2026-05-05 14:32 | 47.67891 | 6.66616 | 30847 ft | 412 kts | 181° |
| 2026-05-05 14:33 | 47.62206 | 6.66399 | 30847 ft | 411 kts | 181° |
| 2026-05-05 14:33 | 47.56490 | 6.66184 | 30851 ft | 410 kts | 181° |
| 2026-05-05 14:34 | 47.50783 | 6.65973 | 30852 ft | 410 kts | 181° |
| 2026-05-05 14:34 | 47.45079 | 6.65766 | 30854 ft | 410 kts | 181° |
| 2026-05-05 14:35 | 47.39384 | 6.65558 | 30852 ft | 409 kts | 182° |
| 2026-05-05 14:35 | 47.33690 | 6.65339 | 30853 ft | 409 kts | 182° |
| 2026-05-05 14:36 | 47.28004 | 6.65125 | 30869 ft | 408 kts | 182° |
| 2026-05-05 14:36 | 47.22445 | 6.63891 | 30878 ft | 407 kts | 199° |
| 2026-05-05 14:37 | 47.17524 | 6.59868 | 30876 ft | 408 kts | 219° |
| 2026-05-05 14:37 | 47.13278 | 6.54294 | 30873 ft | 408 kts | 220° |
| 2026-05-05 14:38 | 47.11150 | 6.51510 | 30655 ft | 409 kts | 220° |
| 2026-05-05 14:38 | 47.09019 | 6.48729 | 30410 ft | 410 kts | 220° |
| 2026-05-05 14:38 | 47.06883 | 6.45946 | 30167 ft | 410 kts | 220° |
| 2026-05-05 14:38 | 47.04747 | 6.43162 | 29917 ft | 411 kts | 220° |
| 2026-05-05 14:39 | 47.02605 | 6.40371 | 29633 ft | 411 kts | 220° |
| 2026-05-05 14:39 | 47.00467 | 6.37585 | 29347 ft | 412 kts | 220° |
| 2026-05-05 14:39 | 46.98329 | 6.34805 | 29062 ft | 413 kts | 220° |
| 2026-05-05 14:39 | 46.96197 | 6.32037 | 28786 ft | 413 kts | 220° |
| 2026-05-05 14:40 | 46.94042 | 6.29240 | 28504 ft | 414 kts | 220° |
| 2026-05-05 14:40 | 46.91884 | 6.26440 | 28232 ft | 415 kts | 220° |
| 2026-05-05 14:40 | 46.89724 | 6.23639 | 27963 ft | 415 kts | 220° |
| 2026-05-05 14:40 | 46.87559 | 6.20818 | 27701 ft | 416 kts | 220° |
| 2026-05-05 14:41 | 46.85409 | 6.18013 | 27235 ft | 413 kts | 220° |
| 2026-05-05 14:41 | 46.83277 | 6.15231 | 26584 ft | 408 kts | 220° |
| 2026-05-05 14:41 | 46.81172 | 6.12486 | 25970 ft | 404 kts | 220° |
| 2026-05-05 14:41 | 46.79081 | 6.09769 | 25352 ft | 400 kts | 220° |
| 2026-05-05 14:42 | 46.77008 | 6.07083 | 24740 ft | 396 kts | 220° |
| 2026-05-05 14:42 | 46.74977 | 6.04456 | 24147 ft | 393 kts | 220° |
| 2026-05-05 14:42 | 46.72930 | 6.01807 | 23551 ft | 390 kts | 220° |
| 2026-05-05 14:42 | 46.70904 | 5.99186 | 22910 ft | 387 kts | 220° |
| 2026-05-05 14:43 | 46.68921 | 5.96623 | 22369 ft | 382 kts | 220° |
| 2026-05-05 14:43 | 46.66929 | 5.94049 | 21850 ft | 378 kts | 220° |
| 2026-05-05 14:43 | 46.64979 | 5.91538 | 21541 ft | 366 kts | 220° |
| 2026-05-05 14:43 | 46.63126 | 5.89159 | 21406 ft | 344 kts | 220° |
| 2026-05-05 14:44 | 46.61396 | 5.86943 | 21142 ft | 327 kts | 220° |
| 2026-05-05 14:44 | 46.59591 | 5.85053 | 20710 ft | 316 kts | 205° |
| 2026-05-05 14:44 | 46.57502 | 5.84104 | 20462 ft | 315 kts | 188° |
| 2026-05-05 14:44 | 46.55314 | 5.84192 | 20205 ft | 317 kts | 171° |
| 2026-05-05 14:45 | 46.53249 | 5.85348 | 19961 ft | 322 kts | 152° |
| 2026-05-05 14:45 | 46.51381 | 5.87185 | 19516 ft | 325 kts | 149° |
| 2026-05-05 14:45 | 46.49516 | 5.89064 | 19011 ft | 328 kts | 149° |
| 2026-05-05 14:45 | 46.47657 | 5.90938 | 18703 ft | 324 kts | 149° |
| 2026-05-05 14:46 | 46.45811 | 5.92796 | 18314 ft | 323 kts | 149° |
| 2026-05-05 14:46 | 46.43969 | 5.94644 | 17889 ft | 321 kts | 149° |
| 2026-05-05 14:46 | 46.42135 | 5.96479 | 17492 ft | 320 kts | 149° |
| 2026-05-05 14:46 | 46.40303 | 5.98309 | 17093 ft | 318 kts | 149° |
| 2026-05-05 14:47 | 46.38497 | 6.00179 | 16548 ft | 323 kts | 143° |
| 2026-05-05 14:47 | 46.37122 | 6.02808 | 15946 ft | 335 kts | 117° |
| 2026-05-05 14:47 | 46.36656 | 6.06119 | 15367 ft | 341 kts | 90° |
| 2026-05-05 14:47 | 46.37246 | 6.09438 | 14798 ft | 345 kts | 63° |
| 2026-05-05 14:48 | 46.38731 | 6.12147 | 14232 ft | 343 kts | 46° |
| 2026-05-05 14:48 | 46.40399 | 6.14595 | 13679 ft | 340 kts | 45° |
| 2026-05-05 14:48 | 46.42059 | 6.17019 | 13061 ft | 337 kts | 46° |
| 2026-05-05 14:48 | 46.43708 | 6.19425 | 12425 ft | 335 kts | 46° |
| 2026-05-05 14:49 | 46.45326 | 6.21791 | 11807 ft | 333 kts | 46° |
| 2026-05-05 14:49 | 46.46945 | 6.24173 | 11209 ft | 331 kts | 46° |
| 2026-05-05 14:49 | 46.48554 | 6.26547 | 10613 ft | 328 kts | 46° |
| 2026-05-05 14:49 | 46.50155 | 6.28889 | 10022 ft | 325 kts | 46° |
| 2026-05-05 14:50 | 46.51737 | 6.31212 | 9413 ft | 322 kts | 47° |
| 2026-05-05 14:50 | 46.53290 | 6.33525 | 8785 ft | 318 kts | 47° |
| 2026-05-05 14:50 | 46.54805 | 6.35843 | 8192 ft | 313 kts | 52° |
| 2026-05-05 14:50 | 46.55784 | 6.38570 | 7659 ft | 300 kts | 80° |
| 2026-05-05 14:51 | 46.55856 | 6.41488 | 7136 ft | 283 kts | 107° |
| 2026-05-05 14:51 | 46.55059 | 6.43986 | 6624 ft | 267 kts | 135° |
| 2026-05-05 14:51 | 46.53625 | 6.45528 | 6110 ft | 252 kts | 164° |
| 2026-05-05 14:51 | 46.51983 | 6.45977 | 5861 ft | 231 kts | 179° |
| 2026-05-05 14:52 | 46.50447 | 6.45797 | 5629 ft | 214 kts | 192° |
| 2026-05-05 14:52 | 46.49026 | 6.45417 | 5401 ft | 202 kts | 193° |
| 2026-05-05 14:52 | 46.47644 | 6.45018 | 5185 ft | 201 kts | 194° |
| 2026-05-05 14:52 | 46.46392 | 6.44199 | 5024 ft | 197 kts | 217° |
| 2026-05-05 14:53 | 46.45403 | 6.42815 | 4997 ft | 199 kts | 225° |
| 2026-05-05 14:53 | 46.44442 | 6.41384 | 5000 ft | 197 kts | 225° |
| 2026-05-05 14:53 | 46.43809 | 6.40442 | 4988 ft | 197 kts | 225° |
| 2026-05-05 14:53 | 46.42845 | 6.39010 | 5000 ft | 199 kts | 225° |
| 2026-05-05 14:54 | 46.41880 | 6.37579 | 5002 ft | 198 kts | 225° |
| 2026-05-05 14:54 | 46.40931 | 6.36171 | 4991 ft | 188 kts | 225° |
| 2026-05-05 14:54 | 46.40044 | 6.34856 | 4993 ft | 179 kts | 225° |
| 2026-05-05 14:54 | 46.39183 | 6.33580 | 4993 ft | 177 kts | 224° |
| 2026-05-05 14:55 | 46.38335 | 6.32324 | 4987 ft | 167 kts | 224° |
| 2026-05-05 14:55 | 46.37550 | 6.31161 | 4877 ft | 158 kts | 225° |
| 2026-05-05 14:55 | 46.36790 | 6.30039 | 4762 ft | 154 kts | 224° |
| 2026-05-05 14:55 | 46.36035 | 6.28922 | 4524 ft | 153 kts | 224° |
| 2026-05-05 14:56 | 46.35287 | 6.27816 | 4312 ft | 154 kts | 224° |
| 2026-05-05 14:56 | 46.34532 | 6.26707 | 4083 ft | 155 kts | 225° |
| 2026-05-05 14:56 | 46.33781 | 6.25605 | 3896 ft | 154 kts | 225° |
| 2026-05-05 14:56 | 46.33022 | 6.24483 | 3651 ft | 155 kts | 225° |
| 2026-05-05 14:57 | 46.32293 | 6.23400 | 3445 ft | 146 kts | 225° |
| 2026-05-05 14:57 | 46.31591 | 6.22362 | 3257 ft | 138 kts | 225° |
| 2026-05-05 14:57 | 46.30958 | 6.21422 | 3119 ft | 126 kts | 225° |
| 2026-05-05 14:57 | 46.30348 | 6.20524 | 2930 ft | 124 kts | 225° |
| 2026-05-05 14:58 | 46.29745 | 6.19638 | 2791 ft | 123 kts | 226° |
| 2026-05-05 14:58 | 46.29147 | 6.18762 | 2623 ft | 123 kts | 224° |
| 2026-05-05 14:58 | 46.28554 | 6.17892 | 2438 ft | 121 kts | 224° |
| 2026-05-05 14:58 | 46.27964 | 6.17008 | 2253 ft | 123 kts | 224° |
| 2026-05-05 14:59 | 46.27365 | 6.16113 | 2106 ft | 124 kts | 224° |
| 2026-05-05 14:59 | 46.26772 | 6.15246 | 1910 ft | 119 kts | 222° |
| 2026-05-05 14:59 | 46.26198 | 6.14404 | 1739 ft | 120 kts | 223° |
| 2026-05-05 14:59 | 46.25601 | 6.13531 | 1561 ft | 123 kts | 224° |
| 2026-05-05 15:00 | 46.25006 | 6.12662 | 1401 ft | 120 kts | 224° |
| 2026-05-05 15:00 | 46.24647 | 6.12141 | 1373 ft | 101 kts | 226° |
| 2026-05-05 15:00 | 46.24188 | 6.11457 | 1373 ft | 38 kts | 225° |
| 2026-05-05 15:00 | 46.24023 | 6.11215 | 1377 ft | 32 kts | 225° |
| 2026-05-05 15:01 | 46.23843 | 6.11073 | 1379 ft | 27 kts | 179° |
| 2026-05-05 15:01 | 46.23754 | 6.11090 | 1383 ft | 6 kts | 171° |
| 2026-05-05 15:01 | 46.23728 | 6.11090 | 1385 ft | 1 kts | 187° |
| 2026-05-05 15:01 | 46.23724 | 6.11088 | 1386 ft | 2 kts | 192° |
| 2026-05-05 15:02 | 46.23687 | 6.11069 | 1389 ft | 9 kts | 188° |
| 2026-05-05 15:02 | 46.23637 | 6.11112 | 1398 ft | 8 kts | 136° |
| 2026-05-05 15:02 | 46.23594 | 6.11164 | 1395 ft | 8 kts | 160° |
| 2026-05-05 15:02 | 46.23551 | 6.11131 | 1393 ft | 7 kts | 225° |
| 2026-05-05 15:03 | 46.23513 | 6.11076 | 1397 ft | 8 kts | 226° |
| 2026-05-05 15:03 | 46.23484 | 6.11048 | 1396 ft | 4 kts | 181° |
| 2026-05-05 15:03 | 46.23463 | 6.11072 | 1398 ft | 4 kts | 137° |
| 2026-05-05 15:03 | 46.23439 | 6.11105 | 1393 ft | 5 kts | 136° |
| 2026-05-05 15:04 | 46.23421 | 6.11131 | 1398 ft | 2 kts | 135° |
| 2026-05-05 15:04 | 46.23417 | 6.11137 | 1398 ft | 0 kts | 136° |